• Join FlightAware (Why Join?)
  • Login
  • US Flag 
05:57PM EDT


 

Airport Tracker/Info


-or-


 

Live Flight TrackerFlight Track Log ✈ ASQ5678 ✈ 18-Jun-2013 ✈ KEWR - KCVG

Flight Track Log - Related Links

Times and Time Zones

All times are in EDT time to prevent confusion due to time zone crossing. See the ASQ5678 flight status page for this flight to view local times or setup timezone preferences in your user account.

Time Position Orientation Groundspeed Altitude Reporting Facility
EDT Latitude Longitude Course Direction KTS MPH feet Rate Location/Type
06:56PM 40.7167 -74.1333 270° West 171 197 1,700  Level New York TRACON
06:57PM 40.7667 -74.1167 14° North 233 268 2,900 1,860 Climbing New York TRACON
06:58PM 40.7833 -74.1833 288° West 246 283 5,500 2,220 Climbing New York TRACON
06:59PM 40.6833 -74.5266 270° West  Level FlightAware Approximate
06:59PM 40.7667 -74.2833 258° West 257 296 7,400  Level New York TRACON
07:00PM 40.6834 -74.6465 270° West  Level FlightAware Approximate
07:00PM 40.7667 -74.3667 270° West 269 310 9,100  Level New York TRACON
07:01PM 40.6834 -74.7665 270° West  Level FlightAware Approximate
07:01PM 40.7500 -74.4667 258° West 271 312 11,100  Level New York TRACON
07:02PM 40.6834 -74.8865 270° West  Level FlightAware Approximate
07:04PM 40.7275 -74.7006 263° West 318 366 13,300  Level New York Center
07:05PM 40.7156 -74.8094 262° West 331 381 14,200 960 Climbing New York Center
07:06PM 40.7008 -74.9317 261° West 336 387 15,200 1,080 Climbing New York Center
07:07PM 40.6833 -75.0675 260° West 336 387 16,400 1,140 Climbing New York Center
07:08PM 40.6375 -75.1794 242° Southwest 341 392 17,500 1,140 Climbing New York Center
07:09PM 40.5944 -75.2725 239° Southwest 341 392 18,800 1,200 Climbing New York Center
07:10PM 40.5464 -75.3839 240° Southwest 341 392 20,000 1,140 Climbing New York Center
07:11PM 40.4964 -75.4897 238° Southwest 336 387 21,100 1,020 Climbing New York Center
07:12PM 40.4553 -75.5825 240° Southwest 330 380 22,100 840 Climbing New York Center
07:13PM 40.4050 -75.6853 237° Southwest 330 380 22,900 720 Climbing New York Center
07:14PM 40.3569 -75.7908 239° Southwest 330 380 23,600 780 Climbing New York Center
07:15PM 40.2972 -75.9144 238° Southwest 341 392 24,500 840 Climbing New York Center
07:16PM 40.2447 -76.0219 237° Southwest 353 406 25,300 840 Climbing New York Center
07:17PM 40.1958 -76.1325 240° Southwest 353 406 26,200 840 Climbing New York Center
07:18PM 40.1519 -76.2294 239° Southwest 353 406 27,100 780 Climbing New York Center
07:19PM 40.0989 -76.3367 237° Southwest 353 406 27,800 780 Climbing New York Center
07:20PM 40.0478 -76.4464 239° Southwest 353 406 28,700 900 Climbing New York Center
07:21PM 39.9989 -76.5508 239° Southwest 353 406 29,700 1,020 Climbing New York Center
07:22PM 39.9500 -76.6581 239° Southwest 353 406 30,800 1,080 Climbing New York Center
07:23PM 39.9008 -76.7622 238° Southwest 342 394 31,900 900 Climbing New York Center
07:25PM 39.7844 -77.0036 238° Southwest 336 387 34,000 600 Climbing Washington Center
07:26PM 39.7353 -77.1106 239° Southwest 341 392 34,000  Level Washington Center
07:27PM 39.6817 -77.2256 239° Southwest 360 414 34,000  Level Washington Center
07:28PM 39.6258 -77.3428 238° Southwest 373 429 34,000  Level Washington Center
07:29PM 39.5722 -77.4572 239° Southwest 379 436 34,000  Level Washington Center
07:30PM 39.5183 -77.5714 239° Southwest 379 436 34,000  Level Washington Center
07:31PM 39.4642 -77.6828 238° Southwest 379 436 34,000  Level Washington Center
07:32PM 39.4122 -77.7942 239° Southwest 379 436 34,000  Level Washington Center
07:33PM 39.3622 -77.9081 240° Southwest 379 436 34,000  Level Washington Center
07:34PM 39.3139 -78.0272 242° Southwest 373 429 34,000  Level Washington Center
07:35PM 39.2678 -78.1439 243° Southwest 373 429 34,000  Level Washington Center
07:36PM 39.2214 -78.2628 243° Southwest 373 429 34,000  Level Washington Center
07:37PM 39.1750 -78.3789 243° Southwest 368 423 34,000  Level Washington Center
07:38PM 39.1286 -78.4947 243° Southwest 363 418 34,000  Level Washington Center
07:39PM 39.0819 -78.6081 242° Southwest 363 418 34,000  Level Washington Center
07:40PM 39.0353 -78.7261 243° Southwest 363 418 34,000  Level Washington Center
07:41PM 38.9817 -78.8547 242° Southwest 363 418 34,000  Level Washington Center
07:42PM 38.9347 -78.9728 243° Southwest 368 423 34,000  Level Washington Center
07:43PM 38.8853 -79.0933 242° Southwest 368 423 34,000  Level Washington Center
07:44PM 38.8689 -79.2231 261° West 373 429 34,000  Level Washington Center
07:45PM 38.8547 -79.3503 262° West 373 429 34,000  Level Washington Center
07:46PM 38.8422 -79.4803 263° West 373 429 34,000  Level Washington Center
07:47PM 38.8294 -79.6156 263° West 368 423 34,000  Level Washington Center
07:48PM 38.8169 -79.7347 262° West 373 429 34,000  Level Washington Center
07:49PM 38.8042 -79.8647 263° West 373 429 34,000  Level Washington Center
07:50PM 38.7878 -79.9864 260° West 366 421 34,000  Level Indianapolis Center
07:51PM 38.7733 -80.1142 262° West 364 419 34,000  Level Indianapolis Center
07:52PM 38.7572 -80.2669 262° West 361 415 34,000  Level Indianapolis Center
07:53PM 38.7428 -80.3925 262° West 358 412 34,000  Level Indianapolis Center
07:54PM 38.7311 -80.5172 263° West 353 406 34,000  Level Indianapolis Center
07:55PM 38.7164 -80.6408 261° West 353 406 34,000  Level Indianapolis Center
07:56PM 38.7025 -80.7647 262° West 351 404 34,000 -480 Level Indianapolis Center
07:57PM 38.6881 -80.8886 262° West 352 405 33,100 -1,020 Descending Indianapolis Center
07:58PM 38.6739 -81.0192 262° West 367 422 32,000 -780 Descending Indianapolis Center
07:59PM 38.6583 -81.1522 262° West 375 432 31,600 -780 Descending Indianapolis Center
08:00PM 38.6608 -81.3119 271° West 382 440 30,400 -780 Descending Indianapolis Center
08:01PM 38.7378 -81.4108 315° West 413 475 30,000 -240 Descending Indianapolis Center
08:02PM 38.7894 -81.5361 298° West 390 449 30,000  Level Indianapolis Center
08:03PM 38.8231 -81.6458 291° West 378 435 30,000  Level Indianapolis Center
08:04PM 38.8658 -81.7942 290° West 374 430 30,000  Level Indianapolis Center
08:05PM 38.9011 -81.9203 290° West 377 434 30,000  Level Indianapolis Center
08:06PM 38.9378 -82.0486 290° West 383 441 30,000  Level Indianapolis Center
08:07PM 38.9753 -82.1781 290° West 385 443 30,000  Level Indianapolis Center
08:08PM 39.0117 -82.3075 290° West 386 444 30,000 -180 Level Indianapolis Center
08:09PM 39.0492 -82.4400 290° West 393 452 29,700 -780 Descending Indianapolis Center
08:11PM 39.0861 -82.5747 289° West 398 458 28,500 -1,320 Descending Indianapolis Center
08:12PM 39.1347 -82.7447 290° West 420 483 27,000 -1,440 Descending Indianapolis Center
08:13PM 39.1725 -82.8842 289° West 415 478 25,600 -1,440 Descending Indianapolis Center
08:14PM 39.2061 -83.0056 290° West 373 429 24,100 -1,500 Descending Indianapolis Center
08:15PM 39.2417 -83.1308 290° West 369 425 22,500 -1,020 Descending Indianapolis Center
08:16PM 39.2758 -83.2589 289° West 373 429 22,000 -480 Descending Indianapolis Center
08:17PM 39.3119 -83.3908 290° West 383 441 21,600 -1,320 Descending Indianapolis Center
08:18PM 39.3475 -83.5222 289° West 381 438 19,400 -2,160 Descending Indianapolis Center
08:19PM 39.3800 -83.6403 290° West 349 402 17,200 -1,740 Descending Indianapolis Center
08:20PM 39.4169 -83.7778 289° West 344 396 15,900 -1,680 Descending Indianapolis Center
08:21PM 39.4475 -83.8939 289° West 336 387 13,800 -2,160 Descending Indianapolis Center
08:22PM 39.4750 -84.0119 287° West 337 388 11,500 -1,500 Descending Indianapolis Center
08:23PM 39.4378 -84.1250 247° West 342 394 10,800 -780 Descending Indianapolis Center
08:24PM 39.4036 -84.2297 247° West 317 365 9,900 -960 Descending Indianapolis Center
08:25PM 39.3733 -84.3217 247° West 281 323 8,900 -1,080 Descending Indianapolis Center
08:26PM 39.3422 -84.4142 247° West 279 321 7,800 -1,320 Descending Indianapolis Center
08:27PM 39.3147 -84.5017 248° West 267 307 6,200 -1,620 Descending Indianapolis Center
08:28PM 39.2869 -84.5897 248° West 262 302 4,500 -1,140 Descending Indianapolis Center
08:29PM 39.2553 -84.6886 248° West 263 303 3,900 -960 Descending Indianapolis Center
08:31PM 39.1000 -84.6667 174° South 140 161 1,400 -1,080 Descending Cincinnati TRACON
08:33PM 39.0488 -84.6678 173° South  Level Estimated
08:40PM 39.0488 -84.6678 339° North  Level Estimated